Impacts METAR Board
IDs:

KRIL - Rifle/Garfield Cnty, CO, US

Updated at: 1200 UTC 07 Jul 2020
Potential Impact None Slight Moderate High
Time 07/00Z 07/01Z 07/02Z 07/03Z 07/04Z 07/05Z 07/06Z 07/07Z 07/08Z 07/09Z 07/10Z 07/11Z 07/12Z
Temp96 95 94 87 77 75 72 70 68 65 62 61 57
Dewpt29 27 23 29 29 33 33 34 38 32 32 31 30
Altim30.01 29.99 29.99 30.00 30.02 30.03 30.04 30.04 30.05 30.05 30.05 30.06 30.08
VIS10 10 10 10 10 10 10 10 10 10 10 10 10
CIG-- -- -- -- -- -- -- -- -- -- -- -- --
CoverCLRCLRCLRCLRCLRCLRCLRCLRCLRCLRCLRCLRCLR
FltCatVFRVFRVFRVFRVFRVFRVFRVFRVFRVFRVFRVFRVFR
WX--------------------------
WDir120140220200160130060110200000
WSpd9 8 6 6 6 11 0 9 3 4 0 0 0
WGst-- -- -- -- -- -- -- -- -- -- -- -- --
Raw hourly METARs
KRIL 062353Z AUTO 12009KT 10SM CLR 36/M02 A3001 RMK AO2 SLP074 T03561017 10367 20311 58017
KRIL 070053Z AUTO 14008KT 10SM CLR 35/M03 A2999 RMK AO2 SLP072 T03501028
KRIL 070153Z AUTO 22006KT 10SM CLR 34/M05 A2999 RMK AO2 SLP068 T03441050
KRIL 070253Z AUTO 20006KT 10SM CLR 31/M02 A3000 RMK AO2 SLP069 T03061017 55003
KRIL 070353Z AUTO 16006KT 10SM CLR 25/M02 A3002 RMK AO2 SLP081 T02501017
KRIL 070453Z AUTO 13011KT 10SM CLR 24/01 A3003 RMK AO2 SLP084 T02390006
KRIL 070553Z AUTO 00000KT 10SM CLR 22/01 A3004 RMK AO2 SLP084 T02220006 10356 20222 51012
KRIL 070653Z AUTO 06009KT 10SM CLR 21/01 A3004 RMK AO2 SLP085 T02110011 403670150
KRIL 070753Z AUTO 11003KT 10SM CLR 20/03 A3005 RMK AO2 SLP089 T02000033
KRIL 070853Z AUTO 20004KT 10SM CLR 18/00 A3005 RMK AO2 SLP090 T01830000 53003
KRIL 070953Z AUTO 00000KT 10SM CLR 17/00 A3005 RMK AO2 SLP091 T01670000
KRIL 071053Z AUTO 00000KT 10SM CLR 16/M01 A3006 RMK AO2 SLP095 T01611006
KRIL 071153Z AUTO 00000KT 10SM CLR 14/M01 A3008 RMK AO2 SLP104 T01391011 10233 20133 53009



Page loaded:  12:53 UTC  |   05:53 AM Pacific  |   06:53 AM Mountain  |   07:53 AM Central  |   08:53 AM Eastern

 

ADVISORIES

FORECASTS

FORECASTS

OBSERVATIONS

USER TOOLS

ABOUT US